Time;durP1;ratioP1;P1;durP2;ratioP2;P2;SDS_P1;SDS_P2;PMS_P1;PMS_P2;Temp;Humidity;BMP_temperature;BMP_pressure;BME280_temperature;BME280_humidity;BME280_pressure;Samples;Min_cycle;Max_cycle;Signal;HPM_P1;HPM_P2
2022/07/20 00:01:59;;;;;;;5.83;3.20;;;22.90;51.40;;;;;;5022611;28;20113;-67
2022/07/20 00:04:24;;;;;;;6.17;2.80;;;22.80;51.50;;;;;;5024042;28;20061;-67
2022/07/20 00:06:50;;;;;;;7.73;3.30;;;22.80;51.50;;;;;;5024023;28;20037;-67
2022/07/20 00:12:01;;;;;;;5.80;2.63;;;22.60;51.50;;;;;;5021966;28;20107;-67
2022/07/20 00:14:26;;;;;;;7.47;3.67;;;22.60;51.70;;;;;;5038044;28;20370;-67
2022/07/20 00:16:52;;;;;;;5.03;3.10;;;22.50;51.60;;;;;;5023810;28;20041;-66
2022/07/20 00:19:18;;;;;;;4.30;3.30;;;22.50;51.70;;;;;;5024218;28;20497;-66
2022/07/20 00:21:43;;;;;;;5.73;3.00;;;22.40;51.80;;;;;;5024118;28;20037;-66
2022/07/20 00:24:09;;;;;;;5.77;2.83;;;22.40;51.70;;;;;;5027666;28;20033;-67
2022/07/20 00:26:35;;;;;;;4.00;3.27;;;22.30;51.80;;;;;;5028047;28;20034;-67
2022/07/20 00:29:00;;;;;;;3.97;3.23;;;22.30;51.80;;;;;;5029046;28;20056;-67
2022/07/20 00:31:26;;;;;;;10.67;3.50;;;22.20;51.80;;;;;;5026170;28;20045;-67
2022/07/20 00:33:52;;;;;;;5.73;2.93;;;22.20;51.70;;;;;;5010893;28;20143;-67
2022/07/20 00:36:19;;;;;;;4.50;3.27;;;22.20;51.90;;;;;;5027012;28;20050;-67
2022/07/20 00:38:45;;;;;;;6.73;3.30;;;22.10;52.00;;;;;;5028352;28;20041;-67
2022/07/20 00:41:11;;;;;;;3.80;2.77;;;22.10;51.80;;;;;;5027177;28;20280;-67
2022/07/20 00:44:15;;;;;;;4.97;2.90;;;22.10;52.00;;;;;;5027796;28;20437;-67
2022/07/20 00:46:44;;;;;;;4.90;2.93;;;22.10;51.90;;;;;;5026482;28;20106;-67
2022/07/20 00:49:12;;;;;;;5.30;3.33;;;22.10;51.80;;;;;;5002049;28;20697;-67
2022/07/20 00:51:43;;;;;;;6.50;2.90;;;22.00;52.00;;;;;;5008364;28;20280;-67
2022/07/20 00:54:09;;;;;;;6.37;3.20;;;22.00;52.20;;;;;;5032744;28;20778;-67
2022/07/20 00:56:36;;;;;;;4.97;2.83;;;22.00;52.20;;;;;;5020017;28;20280;-67
2022/07/20 00:59:07;;;;;;;4.33;3.43;;;21.90;52.10;;;;;;5017213;28;20299;-67
2022/07/20 01:01:33;;;;;;;6.13;3.33;;;21.90;52.10;;;;;;5022305;28;20414;-67
2022/07/20 01:03:59;;;;;;;3.87;2.97;;;21.90;52.10;;;;;;4999877;28;20390;-67
2022/07/20 01:06:25;;;;;;;6.20;2.90;;;21.80;52.10;;;;;;5022863;28;20180;-67
2022/07/20 01:08:51;;;;;;;5.27;2.97;;;21.80;52.10;;;;;;5026952;28;20040;-67
2022/07/20 01:11:18;;;;;;;4.67;3.27;;;21.80;52.10;;;;;;5022242;28;20638;-67
2022/07/20 01:13:44;;;;;;;5.43;3.27;;;21.80;52.00;;;;;;5009476;28;20622;-67
2022/07/20 01:16:10;;;;;;;5.00;2.83;;;21.80;52.10;;;;;;4993921;28;20353;-67
2022/07/20 01:18:36;;;;;;;4.23;3.10;;;21.70;52.10;;;;;;5027132;28;20143;-67
2022/07/20 01:21:07;;;;;;;5.70;2.67;;;21.70;52.20;;;;;;5026535;28;20289;-67
2022/07/20 01:23:32;;;;;;;4.10;3.17;;;21.70;52.20;;;;;;5035232;28;20288;-67
2022/07/20 01:25:59;;;;;;;4.77;3.10;;;21.60;52.20;;;;;;5010607;28;20295;-67
2022/07/20 01:28:26;;;;;;;6.03;3.40;;;21.60;52.30;;;;;;5023799;28;20131;-67
2022/07/20 01:30:52;;;;;;;5.53;3.60;;;21.50;52.20;;;;;;5009876;28;20280;-68
2022/07/20 01:33:19;;;;;;;8.17;3.27;;;21.50;52.30;;;;;;5025190;28;20379;-68
2022/07/20 01:35:45;;;;;;;5.03;3.30;;;21.50;52.30;;;;;;5008896;28;20056;-68
2022/07/20 01:38:10;;;;;;;5.90;3.50;;;21.40;52.40;;;;;;5020587;28;20664;-68
2022/07/20 01:40:36;;;;;;;7.57;3.20;;;21.40;52.50;;;;;;5025588;28;20147;-68
2022/07/20 01:43:02;;;;;;;7.33;4.07;;;21.40;52.50;;;;;;5027447;28;20037;-68
2022/07/20 01:45:27;;;;;;;4.33;3.30;;;21.30;52.50;;;;;;5026670;28;20041;-68
2022/07/20 01:47:53;;;;;;;6.23;3.30;;;21.30;52.50;;;;;;4993577;28;20170;-68
2022/07/20 01:50:19;;;;;;;4.43;3.07;;;21.30;52.60;;;;;;5025916;28;20049;-68
2022/07/20 01:52:45;;;;;;;5.13;3.20;;;21.30;52.70;;;;;;5025653;28;20045;-68
2022/07/20 01:55:11;;;;;;;4.73;3.30;;;21.30;52.80;;;;;;5026342;28;20045;-68
2022/07/20 01:57:37;;;;;;;5.80;3.20;;;21.30;52.80;;;;;;5025667;28;20045;-68
2022/07/20 02:00:06;;;;;;;6.67;3.63;;;21.20;52.90;;;;;;5026227;28;20095;-68
2022/07/20 02:02:31;;;;;;;6.27;3.40;;;21.20;52.90;;;;;;5009377;28;20156;-68
2022/07/20 02:04:57;;;;;;;5.07;3.43;;;21.20;52.90;;;;;;5026284;28;20415;-68
2022/07/20 02:07:23;;;;;;;5.43;3.27;;;21.20;52.80;;;;;;5009239;28;20037;-68
2022/07/20 02:09:48;;;;;;;5.60;3.47;;;21.20;52.90;;;;;;5019941;28;20099;-68
2022/07/20 02:12:14;;;;;;;5.63;3.40;;;21.10;52.90;;;;;;4992611;28;20504;-67
2022/07/20 02:14:40;;;;;;;5.43;3.43;;;21.10;52.70;;;;;;5025648;28;20095;-68
2022/07/20 02:17:05;;;;;;;5.23;3.20;;;21.10;52.80;;;;;;5008524;28;20056;-68
2022/07/20 02:19:31;;;;;;;8.70;3.80;;;21.10;52.80;;;;;;5017466;28;20053;-68
2022/07/20 02:21:57;;;;;;;5.03;3.40;;;21.00;52.90;;;;;;5025113;28;20044;-68
2022/07/20 02:24:23;;;;;;;4.23;3.20;;;21.00;52.90;;;;;;5008930;28;20048;-68
2022/07/20 02:26:48;;;;;;;6.83;3.30;;;21.00;52.80;;;;;;5023472;28;20037;-68
2022/07/20 02:29:14;;;;;;;6.97;3.40;;;20.90;53.00;;;;;;5024177;28;20203;-68
2022/07/20 02:31:40;;;;;;;3.70;3.27;;;20.90;52.90;;;;;;5025228;28;20052;-68
2022/07/20 02:34:05;;;;;;;6.13;3.73;;;20.80;53.00;;;;;;5023364;28;20094;-68
2022/07/20 02:36:31;;;;;;;6.20;3.60;;;20.80;53.00;;;;;;5024741;28;20053;-68
2022/07/20 02:38:56;;;;;;;6.13;3.47;;;20.80;52.90;;;;;;5025404;28;20494;-68
2022/07/20 02:41:22;;;;;;;5.57;3.73;;;20.80;52.90;;;;;;5008771;28;20072;-68
2022/07/20 02:43:48;;;;;;;4.93;3.73;;;20.80;52.90;;;;;;5024791;28;20037;-68
2022/07/20 02:46:14;;;;;;;8.43;3.93;;;20.80;52.90;;;;;;5024458;28;20033;-68
2022/07/20 02:48:39;;;;;;;4.20;3.53;;;20.70;52.90;;;;;;5008188;28;20403;-68
2022/07/20 02:51:05;;;;;;;5.70;3.57;;;20.70;52.90;;;;;;5024847;28;20154;-68
2022/07/20 02:53:31;;;;;;;7.73;3.40;;;20.70;52.80;;;;;;5034223;28;20628;-68
2022/07/20 02:55:57;;;;;;;4.37;3.30;;;20.70;52.70;;;;;;5034858;28;20052;-68
2022/07/20 02:58:22;;;;;;;7.90;3.47;;;20.70;52.80;;;;;;5024558;28;20502;-68
2022/07/20 03:00:48;;;;;;;7.00;3.87;;;20.70;52.70;;;;;;5025221;28;20099;-68
2022/07/20 03:03:14;;;;;;;6.13;3.40;;;20.70;52.60;;;;;;4999155;28;20034;-68
2022/07/20 03:05:40;;;;;;;5.23;3.70;;;20.70;52.80;;;;;;5025191;28;20486;-68
2022/07/20 03:08:07;;;;;;;3.90;3.30;;;20.70;52.90;;;;;;5022952;28;20038;-68
2022/07/20 03:10:33;;;;;;;7.77;3.97;;;20.60;53.20;;;;;;5008353;28;20140;-68
2022/07/20 03:12:59;;;;;;;4.37;3.47;;;20.60;53.20;;;;;;5025094;28;20949;-68
2022/07/20 03:15:25;;;;;;;5.80;3.87;;;20.50;53.40;;;;;;5024780;28;20295;-68
2022/07/20 03:17:52;;;;;;;6.93;4.10;;;20.50;53.70;;;;;;5023594;28;20696;-68
2022/07/20 03:20:27;;;;;;;6.23;4.10;;;20.40;53.80;;;;;;5002854;28;20146;-68
2022/07/20 03:22:54;;;;;;;5.68;3.55;;;20.30;54.00;;;;;;5023074;28;20292;-68
2022/07/20 03:25:19;;;;;;;6.83;3.73;;;20.30;54.00;;;;;;5024436;28;20045;-68
2022/07/20 03:27:46;;;;;;;5.23;3.50;;;20.20;54.10;;;;;;5017173;28;20867;-67
2022/07/20 03:30:12;;;;;;;6.37;4.00;;;20.20;54.10;;;;;;5023670;28;20409;-67
2022/07/20 03:32:38;;;;;;;4.97;3.70;;;20.20;54.20;;;;;;5007816;28;20315;-66
2022/07/20 03:35:05;;;;;;;5.87;4.03;;;20.20;54.40;;;;;;5020667;28;20683;-66
2022/07/20 03:37:30;;;;;;;5.53;3.70;;;20.10;54.40;;;;;;5023551;28;20040;-66
2022/07/20 03:39:56;;;;;;;5.97;4.07;;;20.10;54.70;;;;;;5022720;28;20771;-66
2022/07/20 03:42:22;;;;;;;6.27;3.63;;;20.10;54.70;;;;;;5021210;28;20750;-66
2022/07/20 03:44:48;;;;;;;4.33;3.20;;;20.10;54.70;;;;;;5019365;28;20037;-67
2022/07/20 03:47:13;;;;;;;4.63;3.70;;;20.00;54.70;;;;;;4982723;28;20045;-67
2022/07/20 03:49:39;;;;;;;9.43;3.77;;;20.10;54.70;;;;;;5005950;28;20038;-67
2022/07/20 03:52:05;;;;;;;7.00;3.97;;;20.00;54.80;;;;;;5019126;28;20418;-67
2022/07/20 03:54:31;;;;;;;5.37;3.70;;;20.10;55.00;;;;;;5007268;28;20045;-67
2022/07/20 03:56:57;;;;;;;6.00;4.03;;;20.00;55.00;;;;;;5017811;28;20648;-67
2022/07/20 03:59:22;;;;;;;6.27;3.80;;;20.00;55.10;;;;;;5027170;28;20042;-67
2022/07/20 04:01:48;;;;;;;4.77;4.00;;;20.00;55.20;;;;;;5007751;28;20045;-67
2022/07/20 04:04:14;;;;;;;6.23;4.20;;;20.00;55.10;;;;;;5026792;28;20120;-67
2022/07/20 04:06:39;;;;;;;5.53;3.97;;;20.10;55.10;;;;;;5008422;28;20030;-67
2022/07/20 04:09:05;;;;;;;5.57;3.37;;;20.10;55.10;;;;;;5027235;28;20068;-67
2022/07/20 04:11:31;;;;;;;5.80;3.47;;;20.10;55.00;;;;;;5026622;28;20099;-67
2022/07/20 04:13:57;;;;;;;7.77;3.73;;;20.10;55.10;;;;;;5028093;28;20045;-67
2022/07/20 04:16:23;;;;;;;5.57;3.13;;;20.20;55.40;;;;;;5011988;28;20421;-67
2022/07/20 04:18:48;;;;;;;5.53;4.10;;;20.20;55.20;;;;;;5027181;28;20300;-68
2022/07/20 04:21:14;;;;;;;7.07;3.63;;;20.20;55.30;;;;;;5026854;28;20049;-68
2022/07/20 04:23:40;;;;;;;5.13;3.63;;;20.20;55.50;;;;;;5017965;28;20046;-68
2022/07/20 04:26:06;;;;;;;6.93;3.70;;;20.20;55.50;;;;;;5018413;28;20052;-67
2022/07/20 04:28:32;;;;;;;4.90;3.60;;;20.20;55.50;;;;;;5028165;28;20324;-68
2022/07/20 04:30:57;;;;;;;6.33;3.70;;;20.30;55.60;;;;;;5028245;28;20053;-67
2022/07/20 04:33:23;;;;;;;5.07;3.13;;;20.30;55.40;;;;;;5010851;28;20632;-68
2022/07/20 04:35:49;;;;;;;5.57;3.40;;;20.40;55.40;;;;;;5024736;28;20116;-68
2022/07/20 04:38:17;;;;;;;6.07;3.50;;;20.40;55.60;;;;;;5027844;28;20041;-68
2022/07/20 04:40:43;;;;;;;6.10;3.67;;;20.50;55.50;;;;;;5002995;28;20041;-68
2022/07/20 04:43:09;;;;;;;7.83;3.63;;;20.50;55.70;;;;;;5027338;28;20342;-68
2022/07/20 04:45:35;;;;;;;4.60;3.67;;;20.50;55.40;;;;;;5026894;28;20509;-68
2022/07/20 04:48:00;;;;;;;7.13;3.60;;;20.60;55.40;;;;;;5011433;28;20295;-67
2022/07/20 04:50:26;;;;;;;6.63;3.10;;;20.70;55.60;;;;;;5017430;28;20327;-67
2022/07/20 04:52:52;;;;;;;4.40;3.50;;;21.00;55.30;;;;;;5027342;28;20055;-68
2022/07/20 04:55:18;;;;;;;6.47;3.30;;;21.30;55.00;;;;;;5027698;28;20041;-68
2022/07/20 04:57:44;;;;;;;8.60;3.30;;;21.90;54.50;;;;;;5026940;28;20124;-68
2022/07/20 05:00:11;;;;;;;7.27;3.17;;;22.60;53.40;;;;;;5007407;28;20038;-68
2022/07/20 05:02:37;;;;;;;6.27;3.47;;;23.20;52.00;;;;;;5026030;28;20052;-68
2022/07/20 05:05:03;;;;;;;4.57;3.17;;;24.10;50.40;;;;;;5026642;28;20288;-68
2022/07/20 05:07:29;;;;;;;4.80;3.13;;;25.00;48.50;;;;;;5027543;28;20401;-68
2022/07/20 05:09:55;;;;;;;5.50;3.53;;;25.70;47.00;;;;;;5004943;28;20056;-68
2022/07/20 05:12:20;;;;;;;6.87;3.37;;;26.40;45.70;;;;;;5027695;28;20727;-68
2022/07/20 05:14:46;;;;;;;4.10;3.53;;;26.90;44.60;;;;;;5009645;28;20603;-68
2022/07/20 05:17:12;;;;;;;6.07;3.43;;;27.50;43.70;;;;;;5026197;28;20042;-66
2022/07/20 05:19:37;;;;;;;9.93;3.50;;;27.90;42.90;;;;;;5011168;28;20045;-67
2022/07/20 05:22:03;;;;;;;6.47;3.57;;;28.30;42.10;;;;;;5007353;28;20041;-67
2022/07/20 05:24:29;;;;;;;3.70;2.77;;;28.60;41.60;;;;;;5004533;28;20052;-67
2022/07/20 05:26:54;;;;;;;4.87;3.23;;;28.90;41.00;;;;;;5031505;28;20029;-67
2022/07/20 05:29:20;;;;;;;5.37;3.17;;;29.10;40.00;;;;;;5005082;28;20053;-67
2022/07/20 05:31:46;;;;;;;5.97;3.00;;;29.20;39.70;;;;;;5007672;28;20081;-68
2022/07/20 05:34:12;;;;;;;7.33;3.20;;;29.30;39.60;;;;;;5024565;28;20041;-67
2022/07/20 05:36:38;;;;;;;7.37;3.47;;;29.30;39.50;;;;;;5036038;28;20107;-68
2022/07/20 05:39:03;;;;;;;6.07;3.30;;;29.30;39.20;;;;;;5026880;28;20068;-68
2022/07/20 05:41:29;;;;;;;4.67;3.30;;;29.40;39.00;;;;;;5008471;28;20044;-68
2022/07/20 05:43:55;;;;;;;5.97;3.23;;;29.40;39.00;;;;;;5006654;28;20041;-68
2022/07/20 05:46:21;;;;;;;6.77;3.40;;;29.30;39.20;;;;;;5022630;28;20056;-68
2022/07/20 05:48:46;;;;;;;7.63;3.47;;;29.30;39.30;;;;;;5029162;28;20480;-68
2022/07/20 05:51:12;;;;;;;6.27;3.60;;;29.60;39.30;;;;;;5008415;28;20041;-66
2022/07/20 05:53:38;;;;;;;6.27;3.40;;;29.80;38.90;;;;;;5039739;28;20045;-67
2022/07/20 05:56:04;;;;;;;6.40;3.67;;;29.70;39.20;;;;;;5010033;28;20406;-67
2022/07/20 05:58:30;;;;;;;5.80;3.50;;;29.60;39.30;;;;;;5010650;28;20413;-67
2022/07/20 06:00:56;;;;;;;6.60;3.50;;;29.60;39.80;;;;;;5000880;28;20037;-67
2022/07/20 06:03:22;;;;;;;8.67;3.73;;;29.70;40.00;;;;;;5016837;28;20569;-67
2022/07/20 06:05:47;;;;;;;4.70;3.80;;;29.60;40.10;;;;;;5036081;28;20490;-67
2022/07/20 06:08:13;;;;;;;6.87;3.80;;;29.80;40.30;;;;;;5011637;28;20410;-67
2022/07/20 06:10:39;;;;;;;5.07;4.20;;;29.90;40.30;;;;;;5024230;28;20103;-67
2022/07/20 06:13:05;;;;;;;8.23;4.17;;;30.10;40.20;;;;;;5025663;28;20054;-67
2022/07/20 06:15:31;;;;;;;5.57;3.97;;;30.00;40.90;;;;;;5026639;28;20056;-67
2022/07/20 06:17:57;;;;;;;9.30;4.77;;;30.10;41.40;;;;;;5026672;28;20037;-67
2022/07/20 06:20:23;;;;;;;9.53;5.03;;;30.10;41.80;;;;;;5026441;28;20037;-67
2022/07/20 06:22:50;;;;;;;7.17;4.87;;;30.30;42.00;;;;;;5025679;28;20045;-68
2022/07/20 06:25:17;;;;;;;10.73;5.53;;;30.40;42.10;;;;;;5026326;28;20049;-67
2022/07/20 06:27:43;;;;;;;7.73;5.47;;;30.30;42.60;;;;;;5026810;28;20041;-67
2022/07/20 06:30:11;;;;;;;9.47;5.87;;;30.40;42.90;;;;;;5026104;28;20037;-68
2022/07/20 06:32:38;;;;;;;9.93;6.50;;;30.60;43.10;;;;;;5008328;28;20038;-68
2022/07/20 06:35:04;;;;;;;11.97;6.70;;;30.60;43.80;;;;;;5006762;28;20048;-68
2022/07/20 06:37:30;;;;;;;13.17;7.83;;;30.60;44.00;;;;;;5010009;28;20119;-68
2022/07/20 06:39:56;;;;;;;12.17;8.03;;;30.60;44.80;;;;;;4990062;28;20564;-68
2022/07/20 06:42:22;;;;;;;14.97;8.63;;;30.60;45.00;;;;;;5009614;28;20046;-68
2022/07/20 06:44:48;;;;;;;14.20;9.73;;;30.60;45.60;;;;;;5024630;28;20041;-68
2022/07/20 06:47:14;;;;;;;15.93;9.83;;;30.40;46.40;;;;;;5002860;28;20037;-68
2022/07/20 06:49:41;;;;;;;17.47;10.33;;;30.20;47.10;;;;;;5025599;28;20081;-68
2022/07/20 06:52:06;;;;;;;16.90;11.70;;;30.20;47.80;;;;;;5024811;28;20045;-68
2022/07/20 06:54:32;;;;;;;18.00;12.53;;;30.00;48.90;;;;;;5008417;28;20037;-68
2022/07/20 06:56:58;;;;;;;21.07;13.43;;;29.70;49.90;;;;;;5042317;28;20045;-68
2022/07/20 06:59:24;;;;;;;19.63;13.40;;;29.50;51.10;;;;;;5025502;28;20052;-68
2022/07/20 07:01:50;;;;;;;22.43;13.93;;;29.20;51.70;;;;;;5023008;28;20081;-68
2022/07/20 07:04:16;;;;;;;18.50;14.57;;;29.20;51.80;;;;;;5023165;28;20037;-68
2022/07/20 07:06:42;;;;;;;24.03;15.70;;;28.80;53.00;;;;;;5006287;28;20057;-68
2022/07/20 07:09:09;;;;;;;24.20;16.03;;;28.60;53.60;;;;;;5021892;28;20042;-68
2022/07/20 07:11:35;;;;;;;22.73;15.67;;;28.20;54.80;;;;;;5022817;28;20045;-68
2022/07/20 07:14:01;;;;;;;23.17;16.30;;;28.10;55.40;;;;;;5022876;28;20068;-68
2022/07/20 07:16:27;;;;;;;23.93;15.57;;;27.90;55.90;;;;;;5024910;28;20041;-68
2022/07/20 07:18:53;;;;;;;24.93;16.33;;;27.60;56.70;;;;;;5024960;28;20068;-68
2022/07/20 07:21:19;;;;;;;25.80;17.07;;;27.30;57.70;;;;;;5025050;28;20067;-68
2022/07/20 07:23:49;;;;;;;26.83;16.80;;;27.10;58.60;;;;;;5024751;28;20037;-68
2022/07/20 07:26:19;;;;;;;25.87;16.97;;;26.80;59.20;;;;;;5035846;28;20121;-68
2022/07/20 07:28:46;;;;;;;26.20;16.27;;;26.70;59.70;;;;;;5006954;28;20419;-68
2022/07/20 07:31:11;;;;;;;23.50;17.00;;;26.70;59.60;;;;;;5010957;28;20041;-68
2022/07/20 07:33:38;;;;;;;25.33;17.40;;;26.60;60.80;;;;;;5022761;28;20091;-68
2022/07/20 07:36:04;;;;;;;23.77;16.47;;;26.40;61.50;;;;;;5021456;28;20046;-68
2022/07/20 07:38:31;;;;;;;24.47;18.53;;;26.40;61.70;;;;;;5036955;28;20562;-68
2022/07/20 07:40:57;;;;;;;27.93;19.63;;;26.40;60.30;;;;;;5024719;28;20163;-69
2022/07/20 07:43:22;;;;;;;26.77;18.80;;;26.30;60.30;;;;;;5024410;28;20045;-68
2022/07/20 07:45:48;;;;;;;25.93;18.57;;;26.30;61.00;;;;;;5025016;28;20045;-68
2022/07/20 07:48:14;;;;;;;27.37;18.80;;;26.30;60.40;;;;;;5037603;28;20049;-69
2022/07/20 07:50:42;;;;;;;26.83;18.23;;;26.20;61.00;;;;;;5025472;28;20034;-68
2022/07/20 07:53:08;;;;;;;27.77;20.20;;;26.30;61.00;;;;;;5039558;28;20041;-68
2022/07/20 07:55:35;;;;;;;26.47;19.03;;;26.40;61.00;;;;;;5002741;28;20132;-68
2022/07/20 07:58:01;;;;;;;29.87;20.07;;;26.40;60.10;;;;;;5034886;28;20077;-69
2022/07/20 08:00:27;;;;;;;25.40;19.33;;;26.40;60.50;;;;;;5037721;28;20087;-68
2022/07/20 08:02:54;;;;;;;28.03;19.80;;;26.50;60.60;;;;;;5011681;28;20504;-68
2022/07/20 08:05:20;;;;;;;29.90;19.87;;;26.50;61.30;;;;;;5024884;28;20046;-68
2022/07/20 08:07:46;;;;;;;28.77;20.40;;;26.50;60.50;;;;;;5019968;28;20482;-68
2022/07/20 08:10:12;;;;;;;29.40;20.00;;;26.60;60.10;;;;;;5024066;28;20054;-68
2022/07/20 08:12:38;;;;;;;31.53;20.80;;;26.50;60.70;;;;;;5023516;28;20538;-69
2022/07/20 08:15:05;;;;;;;23.80;19.03;;;26.50;60.60;;;;;;5020916;28;20045;-69
2022/07/20 08:17:32;;;;;;;32.43;21.40;;;26.60;60.40;;;;;;5022597;28;20051;-68
2022/07/20 08:19:57;;;;;;;28.93;21.27;;;26.80;61.20;;;;;;5023058;28;20151;-68
2022/07/20 08:22:23;;;;;;;27.30;20.67;;;26.80;59.60;;;;;;5008480;28;20037;-69
2022/07/20 08:24:49;;;;;;;31.03;20.07;;;26.80;59.80;;;;;;5023443;28;20107;-69
2022/07/20 08:27:15;;;;;;;28.00;20.30;;;26.90;60.20;;;;;;5006148;28;20160;-69
2022/07/20 08:29:41;;;;;;;30.50;21.37;;;27.00;60.20;;;;;;5003081;28;20529;-69
2022/07/20 08:32:06;;;;;;;30.07;20.47;;;27.10;59.90;;;;;;5020959;28;20033;-69
2022/07/20 08:34:32;;;;;;;30.30;20.73;;;27.00;59.40;;;;;;5022193;28;20472;-69
2022/07/20 08:36:58;;;;;;;28.63;20.63;;;27.00;59.20;;;;;;5022007;28;20079;-69
2022/07/20 08:39:25;;;;;;;32.37;19.77;;;26.90;59.20;;;;;;5020947;28;20045;-69
2022/07/20 08:41:51;;;;;;;25.63;20.30;;;27.00;57.90;;;;;;5019739;28;20096;-69
2022/07/20 08:44:17;;;;;;;28.67;20.53;;;26.90;58.20;;;;;;5022101;28;20061;-69
2022/07/20 08:46:44;;;;;;;27.23;20.97;;;26.90;58.10;;;;;;5024077;28;20069;-69
2022/07/20 08:49:12;;;;;;;26.33;18.83;;;27.00;57.80;;;;;;5026441;28;20478;-69
2022/07/20 08:51:38;;;;;;;26.73;20.03;;;26.80;57.70;;;;;;5009408;28;20045;-69
2022/07/20 08:54:04;;;;;;;28.17;19.37;;;26.90;58.00;;;;;;5007243;28;20043;-67
2022/07/20 08:56:30;;;;;;;26.37;17.53;;;26.70;58.20;;;;;;5024841;28;20046;-67
2022/07/20 08:58:55;;;;;;;21.47;14.83;;;26.70;58.00;;;;;;5024447;28;20049;-67
2022/07/20 09:01:21;;;;;;;19.20;13.73;;;26.70;55.30;;;;;;5023114;28;20049;-67
2022/07/20 09:04:07;;;;;;;20.90;13.73;;;26.60;55.10;;;;;;5036493;28;20038;-67
2022/07/20 09:06:34;;;;;;;19.40;13.53;;;26.60;55.10;;;;;;5022637;28;20041;-67
2022/07/20 09:09:15;;;;;;;22.20;14.97;;;26.70;55.60;;;;;;5021368;28;20227;-67
2022/07/20 09:11:51;;;;;;;21.90;14.60;;;26.70;55.80;;;;;;5039953;28;20127;-67
2022/07/20 09:14:42;;;;;;;19.07;15.03;;;26.70;56.40;;;;;;5024184;28;20766;-68
2022/07/20 09:17:21;;;;;;;24.70;13.93;;;26.80;57.30;;;;;;5023907;28;20037;-68
2022/07/20 09:19:58;;;;;;;21.50;14.37;;;27.00;56.70;;;;;;5008260;28;20533;-68
2022/07/20 09:22:36;;;;;;;24.87;15.10;;;27.10;56.60;;;;;;5022626;28;20042;-68
2022/07/20 09:25:20;;;;;;;26.93;14.60;;;27.20;56.60;;;;;;5023368;28;20054;-68
2022/07/20 09:27:46;;;;;;;24.40;14.43;;;27.40;57.00;;;;;;5040706;28;20047;-68
2022/07/20 09:30:14;;;;;;;21.90;14.13;;;27.60;56.20;;;;;;5005710;28;20041;-69
2022/07/20 09:32:55;;;;;;;20.13;13.67;;;27.50;54.60;;;;;;5023404;28;20449;-68
2022/07/20 09:35:23;;;;;;;18.37;11.87;;;27.40;53.50;;;;;;5039062;28;20057;-68
2022/07/20 09:37:49;;;;;;;20.00;11.40;;;27.30;53.20;;;;;;5024272;28;20144;-68
2022/07/20 09:40:15;;;;;;;22.23;12.47;;;27.10;54.10;;;;;;5010002;28;20795;-68
2022/07/20 09:42:43;;;;;;;19.40;10.73;;;27.20;54.90;;;;;;5021098;28;20045;-68
2022/07/20 09:45:29;;;;;;;15.97;9.00;;;27.20;54.40;;;;;;5018125;28;20522;-68
2022/07/20 09:48:03;;;;;;;15.53;9.23;;;27.30;51.70;;;;;;5022957;28;20107;-69
2022/07/20 09:50:39;;;;;;;;;;;27.30;53.10;;;;;;5025756;28;20123;-69
2022/07/20 09:53:07;;;;;;;17.20;9.47;;;27.30;52.80;;;;;;5021628;28;19924;-68
2022/07/20 09:55:34;;;;;;;16.03;9.97;;;27.40;52.50;;;;;;5001887;28;20038;-68
2022/07/20 09:58:01;;;;;;;15.57;10.53;;;27.50;52.40;;;;;;5023961;28;20033;-68
2022/07/20 10:00:28;;;;;;;18.10;10.33;;;27.70;52.40;;;;;;5023826;28;20413;-69
2022/07/20 10:02:58;;;;;;;14.77;10.17;;;27.60;51.30;;;;;;5021332;28;20175;-69
2022/07/20 10:05:27;;;;;;;16.57;9.63;;;27.60;52.50;;;;;;5007519;28;21069;-69
2022/07/20 10:08:27;;;;;;;14.40;9.00;;;27.80;51.80;;;;;;5033235;28;20050;-69
2022/07/20 10:10:53;;;;;;;15.23;9.30;;;28.00;52.40;;;;;;5021798;28;20144;-69
2022/07/20 10:13:19;;;;;;;13.73;9.60;;;28.10;51.40;;;;;;5026622;28;20041;-69
2022/07/20 10:15:56;;;;;;;15.53;10.13;;;28.20;51.40;;;;;;5022014;28;20045;-69
2022/07/20 10:18:23;;;;;;;14.67;8.97;;;28.40;50.70;;;;;;5003513;28;20056;-69
2022/07/20 10:24:31;;;;;;;11.83;7.77;;;28.40;50.40;;;;;;5020830;28;20028;-69
2022/07/20 10:27:13;;;;;;;12.60;8.10;;;28.20;48.90;;;;;;5021624;28;20047;-69
2022/07/20 10:29:48;;;;;;;16.83;8.17;;;28.30;49.40;;;;;;5005135;28;20041;-69
2022/07/20 10:32:17;;;;;;;13.10;7.72;;;28.40;49.10;;;;;;5037636;28;20111;-69
2022/07/20 10:35:03;;;;;;;11.90;7.63;;;28.50;48.90;;;;;;5037143;28;20084;-69
2022/07/20 10:37:45;;;;;;;11.37;7.30;;;28.60;48.20;;;;;;5028450;28;20055;-69
2022/07/20 10:40:19;;;;;;;13.33;8.10;;;28.70;48.40;;;;;;5022266;28;20037;-69
2022/07/20 10:42:49;;;;;;;9.97;6.57;;;28.60;46.90;;;;;;5015190;28;20048;-69
2022/07/20 10:45:20;;;;;;;10.90;7.77;;;28.40;47.90;;;;;;5022297;28;20180;-70
2022/07/20 10:47:51;;;;;;;15.87;7.77;;;28.30;47.40;;;;;;5032822;28;20125;-69
2022/07/20 11:17:48;;;;;;;15.07;8.30;;;28.40;48.80;;;;;;4861100;29;20124;-66
2022/07/20 11:20:17;;;;;;;10.10;7.63;;;28.30;49.10;;;;;;4838984;29;20061;-66
2022/07/20 11:22:44;;;;;;;10.83;7.97;;;28.30;48.70;;;;;;4854739;29;20566;-66
2022/07/20 11:25:13;;;;;;;10.67;7.83;;;28.50;48.10;;;;;;4855914;29;20056;-66
2022/07/20 11:27:38;;;;;;;14.27;8.37;;;28.70;48.20;;;;;;4843093;29;20055;-66
2022/07/20 11:30:06;;;;;;;12.33;7.50;;;28.80;48.00;;;;;;4855886;29;20045;-66
2022/07/20 11:32:31;;;;;;;11.77;7.90;;;28.90;47.50;;;;;;4861210;29;20049;-65
2022/07/20 11:34:58;;;;;;;10.37;7.77;;;29.00;47.90;;;;;;4830030;29;20135;-67
2022/07/20 11:37:25;;;;;;;12.17;8.13;;;29.00;47.20;;;;;;4857732;29;20060;-67
2022/07/20 11:39:51;;;;;;;11.50;8.00;;;29.10;47.80;;;;;;4841425;29;20045;-67
2022/07/20 11:42:17;;;;;;;13.10;7.90;;;29.10;47.30;;;;;;4817722;29;20383;-67
2022/07/20 11:44:59;;;;;;;16.57;9.90;;;28.90;47.00;;;;;;4861285;29;20036;-67
2022/07/20 11:47:25;;;;;;;14.33;9.20;;;28.80;46.20;;;;;;4862032;29;20037;-67
2022/07/20 11:50:12;;;;;;;12.67;9.27;;;28.80;47.30;;;;;;4873007;29;20056;-67
2022/07/20 11:52:40;;;;;;;14.77;8.30;;;29.00;47.00;;;;;;4854737;29;20049;-66
2022/07/20 11:55:07;;;;;;;14.80;8.60;;;29.00;48.00;;;;;;4839266;29;20486;-66
2022/07/20 11:57:32;;;;;;;13.30;8.43;;;29.20;47.20;;;;;;4854594;29;20041;-67
2022/07/20 11:59:58;;;;;;;12.87;8.63;;;29.40;47.30;;;;;;4856728;29;20049;-67
2022/07/20 12:02:25;;;;;;;13.17;7.83;;;29.50;47.50;;;;;;4852111;29;20110;-67
2022/07/20 12:04:51;;;;;;;11.33;7.70;;;29.70;46.60;;;;;;4859415;29;20036;-67
2022/07/20 12:10:16;;;;;;;12.57;6.97;;;29.40;45.50;;;;;;4847299;29;20501;-67
2022/07/20 12:12:44;;;;;;;10.63;6.60;;;29.40;45.40;;;;;;4857093;29;20048;-66
2022/07/20 12:15:10;;;;;;;11.07;6.80;;;29.40;44.40;;;;;;4864111;29;20046;-66
2022/07/20 12:17:51;;;;;;;12.93;7.20;;;29.40;45.70;;;;;;4875891;29;20135;-66
2022/07/20 12:20:16;;;;;;;8.37;6.87;;;29.60;45.50;;;;;;4876923;29;20044;-66
2022/07/20 12:22:56;;;;;;;11.23;6.13;;;29.70;45.80;;;;;;4873948;29;20406;-67
2022/07/20 12:25:39;;;;;;;10.33;7.07;;;29.70;44.90;;;;;;4855885;29;20044;-67
2022/07/20 12:28:05;;;;;;;8.13;6.60;;;29.60;44.90;;;;;;4865380;29;20580;-67
2022/07/20 12:30:34;;;;;;;13.17;6.87;;;29.70;44.70;;;;;;4863537;29;20177;-67
2022/07/20 12:33:15;;;;;;;10.93;7.40;;;29.70;45.50;;;;;;4864217;29;20151;-67
2022/07/20 12:35:48;;;;;;;9.47;6.60;;;29.70;44.40;;;;;;4874198;29;20044;-67
2022/07/20 12:38:15;;;;;;;9.33;6.60;;;29.70;45.00;;;;;;4864265;29;20040;-67
2022/07/20 12:40:44;;;;;;;9.30;6.67;;;29.80;45.40;;;;;;4864422;29;20102;-68
2022/07/20 12:43:28;;;;;;;10.37;7.87;;;30.00;45.10;;;;;;4860601;29;20036;-67
2022/07/20 12:46:08;;;;;;;10.65;6.72;;;29.90;44.90;;;;;;4870759;29;20612;-66
2022/07/20 12:48:48;;;;;;;7.53;6.70;;;29.70;44.90;;;;;;4875797;29;20462;-67
2022/07/20 12:51:14;;;;;;;9.17;6.50;;;29.90;44.90;;;;;;4864174;29;20245;-67
2022/07/20 12:53:42;;;;;;;8.97;6.57;;;29.90;45.80;;;;;;4871692;29;20052;-67
2022/07/20 12:56:08;;;;;;;11.03;6.77;;;29.80;46.40;;;;;;4877549;29;20409;-67
2022/07/20 12:58:35;;;;;;;9.07;6.33;;;29.90;45.70;;;;;;4891484;29;20047;-68
2022/07/20 13:01:01;;;;;;;11.80;6.03;;;30.00;45.50;;;;;;4863135;29;20458;-66
2022/07/20 13:03:26;;;;;;;8.97;6.10;;;30.10;45.40;;;;;;4857238;29;20131;-67
2022/07/20 13:05:53;;;;;;;8.30;5.90;;;30.20;44.80;;;;;;4879366;29;20076;-66
2022/07/20 13:08:20;;;;;;;8.00;6.40;;;30.10;44.50;;;;;;4873900;29;20454;-66
2022/07/20 13:10:46;;;;;;;8.93;5.60;;;30.00;45.40;;;;;;4861099;29;20040;-67
2022/07/20 13:13:12;;;;;;;13.17;6.50;;;30.00;44.70;;;;;;4876937;29;20072;-66
2022/07/20 13:15:38;;;;;;;9.97;6.90;;;30.00;45.10;;;;;;4859563;29;20072;-66
2022/07/20 13:18:05;;;;;;;8.80;6.77;;;30.00;46.20;;;;;;4877746;29;20552;-66
2022/07/20 13:20:31;;;;;;;11.40;7.03;;;30.00;46.20;;;;;;4877972;29;20136;-66